Time;durP1;ratioP1;P1;durP2;ratioP2;P2;SDS_P1;SDS_P2;PMS_P1;PMS_P2;Temp;Humidity;BMP_temperature;BMP_pressure;BME280_temperature;BME280_humidity;BME280_pressure;Samples;Min_cycle;Max_cycle;Signal;HPM_P1;HPM_P2
2022/08/28 00:01:19;;;;;;;8.60;7.80;;;;;;;16.93;100.00;96476.34;5054405;28;20200;-58
2022/08/28 00:03:46;;;;;;;8.60;7.65;;;;;;;16.93;100.00;96487.81;5054143;28;20199;-58
2022/08/28 00:06:12;;;;;;;8.35;7.55;;;;;;;17.02;100.00;96479.72;5050969;28;20235;-58
2022/08/28 00:08:39;;;;;;;9.45;7.60;;;;;;;16.96;100.00;96475.13;5052172;28;20250;-59
2022/08/28 00:11:06;;;;;;;8.13;7.32;;;;;;;16.96;100.00;96480.47;5058463;28;20204;-60
2022/08/28 00:13:32;;;;;;;9.05;8.00;;;;;;;16.94;100.00;96475.28;5060447;28;20221;-60
2022/08/28 00:16:01;;;;;;;8.18;7.47;;;;;;;16.99;100.00;96478.25;5064237;28;20227;-57
2022/08/28 00:18:28;;;;;;;9.38;8.23;;;;;;;17.05;100.00;96488.19;5046833;28;20207;-59
2022/08/28 00:20:55;;;;;;;9.70;7.80;;;;;;;16.94;100.00;96483.31;5044918;28;20258;-53
2022/08/28 00:23:24;;;;;;;8.77;7.97;;;;;;;16.90;100.00;96482.84;5045013;28;20227;-54
2022/08/28 00:25:51;;;;;;;9.13;8.18;;;;;;;16.87;100.00;96485.06;5044654;28;20204;-54
2022/08/28 00:28:17;;;;;;;9.32;8.43;;;;;;;16.82;100.00;96477.63;5045576;28;20211;-53
2022/08/28 00:30:47;;;;;;;9.00;8.30;;;;;;;16.82;100.00;96482.16;5043949;28;20712;-53
2022/08/28 00:33:17;;;;;;;9.30;8.40;;;;;;;16.83;100.00;96478.44;5044773;28;20302;-59
2022/08/28 00:35:44;;;;;;;9.87;8.80;;;;;;;16.84;100.00;96475.59;5043759;28;20218;-57
2022/08/28 00:38:12;;;;;;;10.98;8.32;;;;;;;16.82;100.00;96474.13;5044892;28;20293;-54
2022/08/28 00:40:40;;;;;;;8.73;8.03;;;;;;;16.81;100.00;96470.63;5043874;28;20633;-55
2022/08/28 00:43:07;;;;;;;8.57;7.78;;;;;;;16.84;100.00;96474.75;5043667;28;20624;-54
2022/08/28 00:45:34;;;;;;;8.82;8.00;;;;;;;16.80;100.00;96474.31;5044050;28;20257;-54
2022/08/28 00:48:01;;;;;;;9.32;8.30;;;;;;;16.78;100.00;96470.19;5044034;28;20349;-52
2022/08/28 00:52:04;;;;;;;9.18;8.30;;;;;;;16.79;100.00;96472.63;5044390;28;20207;-52
2022/08/28 00:53:19;;;;;;;9.80;8.75;;;;;;;16.74;100.00;96474.22;5042778;28;20307;-55
2022/08/28 00:55:46;;;;;;;8.75;7.85;;;;;;;16.73;100.00;96473.38;5043599;28;20219;-52
2022/08/28 00:58:13;;;;;;;9.70;8.80;;;;;;;16.72;100.00;96471.72;5043364;28;20602;-54
2022/08/28 01:00:40;;;;;;;12.43;8.77;;;;;;;16.71;100.00;96479.94;5044255;28;20587;-55
2022/08/28 01:03:07;;;;;;;9.07;8.20;;;;;;;16.70;100.00;96470.25;5045310;28;20603;-56
2022/08/28 01:05:36;;;;;;;9.32;8.27;;;;;;;16.70;100.00;96473.75;5043413;28;20211;-56
2022/08/28 01:08:03;;;;;;;9.98;8.98;;;;;;;16.71;100.00;96474.59;5043577;28;20282;-57
2022/08/28 01:10:32;;;;;;;9.80;8.80;;;;;;;16.71;100.00;96469.25;5043370;28;20209;-52
2022/08/28 01:12:59;;;;;;;9.60;8.70;;;;;;;16.73;100.00;96473.38;5043488;28;20265;-50
2022/08/28 01:15:28;;;;;;;8.23;7.53;;;;;;;16.77;100.00;96474.69;5044235;28;20294;-53
2022/08/28 01:17:58;;;;;;;9.70;8.63;;;;;;;16.78;100.00;96464.84;5043167;28;20266;-53
2022/08/28 01:20:28;;;;;;;8.82;8.02;;;;;;;16.78;100.00;96465.66;5043103;28;20571;-54
2022/08/28 01:23:03;;;;;;;9.68;8.63;;;;;;;16.78;100.00;96471.00;5052779;28;20206;-53
2022/08/28 01:25:36;;;;;;;9.50;8.60;;;;;;;16.76;100.00;96470.34;5049075;28;20210;-56
2022/08/28 01:28:05;;;;;;;9.23;8.18;;;;;;;16.81;100.00;96459.94;5055189;28;20288;-55
2022/08/28 01:30:31;;;;;;;9.32;8.40;;;;;;;16.88;100.00;96468.88;5055692;28;20257;-54
2022/08/28 01:32:58;;;;;;;9.70;8.88;;;;;;;16.90;100.00;96471.34;5055070;28;20640;-53
2022/08/28 01:35:29;;;;;;;10.35;9.25;;;;;;;16.91;100.00;96467.66;5054966;28;20266;-54
2022/08/28 01:37:56;;;;;;;10.48;9.50;;;;;;;16.91;100.00;96465.81;5054892;28;20234;-54
2022/08/28 01:40:25;;;;;;;10.45;9.55;;;;;;;16.93;100.00;96468.31;5055972;28;20248;-55
2022/08/28 01:42:54;;;;;;;10.32;9.43;;;;;;;16.97;100.00;96458.09;5055619;28;20599;-55
2022/08/28 01:45:22;;;;;;;10.48;9.55;;;;;;;17.01;100.00;96467.38;5044253;28;20230;-55
2022/08/28 01:47:49;;;;;;;11.35;10.35;;;;;;;17.01;100.00;96470.03;5052194;28;20267;-54
2022/08/28 01:50:20;;;;;;;11.38;10.27;;;;;;;17.04;100.00;96465.16;5049380;28;20278;-55
2022/08/28 01:52:46;;;;;;;11.23;10.13;;;;;;;17.01;100.00;96464.69;5055037;28;20272;-54
2022/08/28 01:55:14;;;;;;;14.25;12.82;;;;;;;17.06;100.00;96456.94;5055185;28;20607;-55
2022/08/28 01:57:44;;;;;;;14.45;13.00;;;;;;;17.11;100.00;96462.56;5056236;28;20292;-56
2022/08/28 02:00:14;;;;;;;15.52;14.00;;;;;;;17.16;100.00;96452.13;5056064;28;20231;-54
2022/08/28 02:02:41;;;;;;;14.50;13.10;;;;;;;17.23;100.00;96461.06;5056988;28;20697;-55
2022/08/28 02:05:09;;;;;;;16.38;13.27;;;;;;;17.28;100.00;96455.97;5055401;28;20207;-54
2022/08/28 02:07:36;;;;;;;15.77;14.18;;;;;;;17.31;100.00;96456.44;5056440;28;20211;-55
2022/08/28 02:10:02;;;;;;;15.65;14.15;;;;;;;17.35;100.00;96459.56;5057115;28;20218;-54
2022/08/28 02:12:30;;;;;;;13.65;12.45;;;;;;;17.39;100.00;96456.28;5055202;28;20709;-55
2022/08/28 02:14:57;;;;;;;14.75;13.25;;;;;;;17.39;100.00;96458.16;5055205;28;20289;-55
2022/08/28 02:17:25;;;;;;;14.88;13.48;;;;;;;17.37;100.00;96462.84;5042063;28;20626;-55
2022/08/28 02:19:52;;;;;;;15.38;13.88;;;;;;;17.32;100.00;96462.63;5055192;28;20250;-55
2022/08/28 02:22:18;;;;;;;15.15;13.63;;;;;;;17.27;100.00;96465.00;5054853;28;20238;-54
2022/08/28 02:24:45;;;;;;;13.52;12.23;;;;;;;17.25;100.00;96464.38;5054573;28;20274;-54
2022/08/28 02:27:12;;;;;;;13.75;12.55;;;;;;;17.18;100.00;96468.81;5054499;28;20486;-54
2022/08/28 02:29:38;;;;;;;15.98;14.48;;;;;;;17.14;100.00;96467.53;5055348;28;20290;-54
2022/08/28 02:32:05;;;;;;;15.23;13.68;;;;;;;17.08;100.00;96473.63;5054891;28;20211;-55
2022/08/28 02:34:34;;;;;;;15.30;13.80;;;;;;;17.04;100.00;96469.69;5054609;28;20207;-54
2022/08/28 02:37:01;;;;;;;14.52;13.00;;;;;;;17.00;100.00;96468.41;5055356;28;20289;-54
2022/08/28 02:39:28;;;;;;;15.00;13.50;;;;;;;16.96;100.00;96461.78;5054277;28;20207;-55
2022/08/28 02:41:55;;;;;;;14.52;13.00;;;;;;;16.93;100.00;96465.66;5054636;28;20218;-55
2022/08/28 02:44:21;;;;;;;14.38;12.95;;;;;;;16.89;100.00;96461.69;5051945;28;20199;-55
2022/08/28 02:46:48;;;;;;;14.15;12.73;;;;;;;16.82;100.00;96466.13;5044710;28;20199;-54
2022/08/28 02:49:15;;;;;;;13.13;11.82;;;;;;;16.79;100.00;96472.63;5048445;28;20274;-54
2022/08/28 02:51:43;;;;;;;13.70;12.43;;;;;;;16.79;100.00;96464.63;5054223;28;20697;-55
2022/08/28 02:54:09;;;;;;;13.85;12.45;;;;;;;16.80;100.00;96466.28;5054527;28;20211;-55
2022/08/28 02:56:36;;;;;;;13.85;12.40;;;;;;;16.80;100.00;96463.63;5054330;28;20258;-54
2022/08/28 02:59:03;;;;;;;13.23;11.95;;;;;;;16.80;100.00;96470.81;5054248;28;20678;-55
2022/08/28 03:01:30;;;;;;;12.35;11.15;;;;;;;16.79;100.00;96467.31;5053445;28;20241;-54
2022/08/28 03:03:57;;;;;;;12.75;11.55;;;;;;;16.80;100.00;96460.94;5054194;28;20274;-55
2022/08/28 03:06:23;;;;;;;12.73;10.80;;;;;;;16.84;100.00;96470.25;5054043;28;20231;-54
2022/08/28 03:08:51;;;;;;;12.82;11.63;;;;;;;16.83;100.00;96457.91;5053764;28;20207;-55
2022/08/28 03:11:18;;;;;;;11.95;10.82;;;;;;;16.83;100.00;96463.25;5054257;28;20238;-54
2022/08/28 03:13:45;;;;;;;13.48;11.68;;;;;;;16.85;100.00;96458.56;5054215;28;20199;-55
2022/08/28 03:16:12;;;;;;;13.27;11.98;;;;;;;16.88;100.00;96455.53;5053970;28;20310;-54
2022/08/28 03:18:40;;;;;;;13.23;12.02;;;;;;;16.87;100.00;96456.53;5053277;28;20198;-54
2022/08/28 03:21:07;;;;;;;13.32;11.95;;;;;;;16.87;100.00;96453.84;5054136;28;20206;-55
2022/08/28 03:23:33;;;;;;;13.75;12.50;;;;;;;16.83;100.00;96455.25;5054336;28;20203;-55
2022/08/28 03:26:03;;;;;;;13.57;12.10;;;;;;;16.82;100.00;96461.63;5054095;28;20222;-54
2022/08/28 03:28:32;;;;;;;13.70;12.30;;;;;;;16.84;100.00;96456.91;5053468;28;20210;-55
2022/08/28 03:30:59;;;;;;;13.07;11.52;;;;;;;16.88;100.00;96462.69;5053877;28;20231;-54
2022/08/28 03:33:26;;;;;;;13.80;12.38;;;;;;;16.90;100.00;96466.84;5054103;28;20238;-55
2022/08/28 03:35:54;;;;;;;13.05;11.77;;;;;;;16.90;100.00;96464.16;5053123;28;20262;-53
2022/08/28 03:38:21;;;;;;;12.50;11.40;;;;;;;16.93;100.00;96473.66;5053821;28;20608;-54
2022/08/28 03:40:48;;;;;;;12.45;11.35;;;;;;;16.94;100.00;96464.63;5053686;28;20470;-54
2022/08/28 03:43:18;;;;;;;12.73;11.52;;;;;;;17.00;100.00;96463.06;5054029;28;20596;-54
2022/08/28 03:45:52;;;;;;;12.90;11.70;;;;;;;17.00;100.00;96468.41;5053653;28;20231;-55
2022/08/28 03:48:19;;;;;;;12.88;11.20;;;;;;;17.01;100.00;96470.03;5052089;28;20250;-55
2022/08/28 03:50:46;;;;;;;13.20;11.90;;;;;;;17.05;100.00;96476.66;5049095;28;20253;-54
2022/08/28 03:53:12;;;;;;;13.75;12.55;;;;;;;17.11;100.00;96482.09;5053661;28;20261;-54
2022/08/28 03:55:41;;;;;;;13.27;12.07;;;;;;;17.14;100.00;96475.56;5053451;28;20223;-54
2022/08/28 03:58:08;;;;;;;13.70;12.40;;;;;;;17.17;100.00;96475.19;5053423;28;20233;-54
2022/08/28 04:00:36;;;;;;;13.55;12.25;;;;;;;17.19;100.00;96478.47;5053905;28;20607;-55
2022/08/28 04:03:03;;;;;;;14.63;13.13;;;;;;;17.21;100.00;96466.59;5054162;28;20234;-56
2022/08/28 04:05:30;;;;;;;14.57;13.20;;;;;;;17.19;100.00;96478.47;5053385;28;20290;-54
2022/08/28 04:07:56;;;;;;;13.77;12.48;;;;;;;17.17;100.00;96472.50;5053845;28;20253;-55
2022/08/28 04:10:23;;;;;;;13.73;12.43;;;;;;;17.19;100.00;96468.63;5053363;28;20250;-55
2022/08/28 04:12:50;;;;;;;14.95;13.45;;;;;;;17.24;100.00;96470.75;5054004;28;20245;-55
2022/08/28 04:15:16;;;;;;;14.60;13.30;;;;;;;17.23;100.00;96469.06;5053302;28;20219;-56
2022/08/28 04:17:44;;;;;;;14.23;12.73;;;;;;;17.25;100.00;96478.53;5053674;28;20249;-54
2022/08/28 04:20:11;;;;;;;13.90;12.60;;;;;;;17.28;100.00;96470.19;5053329;28;20234;-55
2022/08/28 04:22:38;;;;;;;13.95;12.63;;;;;;;17.29;100.00;96468.31;5041740;28;20671;-54
2022/08/28 04:25:06;;;;;;;14.38;12.93;;;;;;;17.32;100.00;96467.97;5052329;28;20294;-55
2022/08/28 04:27:33;;;;;;;14.48;13.00;;;;;;;17.35;100.00;96479.09;5054010;28;20234;-54
2022/08/28 04:30:00;;;;;;;16.95;15.23;;;;;;;17.36;100.00;96478.06;5056854;28;20643;-55
2022/08/28 04:32:27;;;;;;;19.52;17.65;;;;;;;17.35;100.00;96478.28;5057111;28;20646;-54
2022/08/28 04:34:55;;;;;;;19.20;17.50;;;;;;;17.38;100.00;96481.38;5057005;28;20249;-55
2022/08/28 04:37:22;;;;;;;19.95;17.95;;;;;;;17.35;100.00;96479.09;5056771;28;20262;-55
2022/08/28 04:39:49;;;;;;;21.75;17.98;;;;;;;17.36;100.00;96483.41;5057085;28;20207;-54
2022/08/28 04:42:15;;;;;;;19.55;17.55;;;;;;;17.37;100.00;96481.56;5057420;28;20204;-54
2022/08/28 04:44:42;;;;;;;18.63;16.83;;;;;;;17.42;100.00;96484.50;5056357;28;20233;-54
2022/08/28 04:47:10;;;;;;;19.25;17.25;;;;;;;17.44;100.00;96482.47;5057189;28;20235;-55
2022/08/28 04:49:37;;;;;;;20.00;18.08;;;;;;;17.40;100.00;96487.34;5050863;28;20334;-54
2022/08/28 04:52:05;;;;;;;20.33;18.08;;;;;;;17.40;100.00;96492.72;5056718;28;20276;-54
2022/08/28 04:54:33;;;;;;;19.08;17.27;;;;;;;17.42;100.00;96495.22;5056989;28;20303;-55
2022/08/28 04:57:02;;;;;;;19.90;17.90;;;;;;;17.43;100.00;96495.00;5056551;28;20238;-54
2022/08/28 04:59:29;;;;;;;18.67;16.77;;;;;;;17.47;100.00;96494.63;5056481;28;20219;-55
2022/08/28 05:01:56;;;;;;;19.33;17.42;;;;;;;17.48;100.00;96488.25;5056357;28;20652;-54
2022/08/28 05:04:23;;;;;;;18.35;16.65;;;;;;;17.48;100.00;96489.09;5057183;28;20268;-55
2022/08/28 05:06:49;;;;;;;17.70;15.95;;;;;;;17.50;100.00;96497.75;5055899;28;20239;-55
2022/08/28 05:09:19;;;;;;;17.27;15.50;;;;;;;17.54;100.00;96504.38;5056681;28;20670;-54
2022/08/28 05:11:46;;;;;;;18.65;16.77;;;;;;;17.56;100.00;96507.72;5056354;28;20635;-55
2022/08/28 05:14:13;;;;;;;17.85;16.15;;;;;;;17.60;100.00;96508.19;5056461;28;20231;-55
2022/08/28 05:16:42;;;;;;;16.77;15.18;;;;;;;17.64;100.00;96510.25;5055935;28;20267;-54
2022/08/28 05:19:09;;;;;;;18.42;16.63;;;;;;;17.65;100.00;96511.94;5057192;28;20541;-55
2022/08/28 05:21:36;;;;;;;18.58;16.80;;;;;;;17.64;100.00;96523.63;5055963;28;20294;-55
2022/08/28 05:24:03;;;;;;;16.67;14.98;;;;;;;17.66;100.00;96513.59;5056744;28;20234;-54
2022/08/28 05:26:32;;;;;;;16.60;15.00;;;;;;;17.71;100.00;96523.72;5056527;28;20239;-54
2022/08/28 05:28:59;;;;;;;16.67;15.05;;;;;;;17.71;100.00;96521.84;5056194;28;20286;-55
2022/08/28 05:31:27;;;;;;;14.68;13.38;;;;;;;17.75;100.00;96533.84;5056091;28;20703;-55
2022/08/28 05:33:54;;;;;;;15.73;14.32;;;;;;;17.76;100.00;96530.16;5056997;28;20280;-54
2022/08/28 05:36:24;;;;;;;17.42;15.73;;;;;;;17.76;100.00;96527.47;5055965;28;20619;-55
2022/08/28 05:38:55;;;;;;;17.17;15.63;;;;;;;17.78;100.00;96522.75;5055653;28;20252;-54
2022/08/28 05:41:24;;;;;;;16.42;14.88;;;;;;;17.82;100.00;96524.03;5055246;28;20211;-54
2022/08/28 05:43:53;;;;;;;16.45;14.88;;;;;;;17.85;100.00;96531.66;5055842;28;20635;-54
2022/08/28 05:46:19;;;;;;;16.92;15.32;;;;;;;17.89;100.00;96540.97;5055825;28;20235;-55
2022/08/28 05:48:47;;;;;;;16.10;14.52;;;;;;;17.92;100.00;96535.25;5050526;28;20708;-55
2022/08/28 05:51:18;;;;;;;17.95;16.35;;;;;;;17.95;100.00;96538.56;5054724;28;20238;-54
2022/08/28 05:53:45;;;;;;;16.50;14.80;;;;;;;17.99;100.00;96539.84;5055605;28;20636;-54
2022/08/28 05:56:14;;;;;;;17.17;15.57;;;;;;;18.03;100.00;96538.44;5056823;28;20218;-53
2022/08/28 05:58:41;;;;;;;16.33;14.77;;;;;;;18.02;100.00;96550.16;5056007;28;20288;-54
2022/08/28 06:01:12;;;;;;;14.02;12.82;;;;;;;18.05;100.00;96550.59;5055384;28;20286;-54
2022/08/28 06:03:40;;;;;;;16.92;15.35;;;;;;;18.06;100.00;96556.78;5057086;28;20261;-55
2022/08/28 06:06:08;;;;;;;17.38;15.82;;;;;;;18.05;100.00;96549.78;5055507;28;20245;-54
2022/08/28 06:08:35;;;;;;;17.73;15.82;;;;;;;18.04;100.00;96550.78;5055292;28;20238;-55
2022/08/28 06:11:02;;;;;;;17.58;15.88;;;;;;;18.04;100.00;96548.09;5055379;28;20239;-55
2022/08/28 06:13:30;;;;;;;18.05;16.25;;;;;;;18.06;100.00;96554.94;5054722;28;20620;-54
2022/08/28 06:15:56;;;;;;;19.65;17.60;;;;;;;18.10;100.00;96553.56;5055473;28;20320;-55
2022/08/28 06:18:25;;;;;;;17.38;15.73;;;;;;;18.06;100.00;96556.78;5053251;28;20239;-54
2022/08/28 06:20:53;;;;;;;17.77;16.17;;;;;;;18.06;100.00;96556.78;5048349;28;20268;-54
2022/08/28 06:23:21;;;;;;;17.33;15.50;;;;;;;18.10;100.00;96560.75;5044773;28;20238;-54
2022/08/28 06:25:49;;;;;;;18.95;17.15;;;;;;;18.15;100.00;96559.13;5056695;28;20659;-54
2022/08/28 06:28:18;;;;;;;19.20;17.33;;;;;;;18.14;100.00;96560.16;5054964;28;20289;-54
2022/08/28 06:30:45;;;;;;;20.05;17.92;;;;;;;18.17;100.00;96558.97;5054686;28;20651;-54
2022/08/28 06:33:15;;;;;;;19.05;17.25;;;;;;;18.18;100.00;96555.25;5054925;28;20215;-55
2022/08/28 06:35:44;;;;;;;18.33;16.52;;;;;;;18.18;100.00;96564.09;5054182;28;20268;-54
2022/08/28 06:38:11;;;;;;;18.65;16.95;;;;;;;18.21;100.00;96565.59;5054297;28;20243;-54
2022/08/28 06:40:39;;;;;;;19.25;17.45;;;;;;;18.25;100.00;96574.88;5054958;28;20541;-55
2022/08/28 06:43:06;;;;;;;21.75;19.40;;;;;;;18.27;100.00;96575.53;5055076;28;20207;-55
2022/08/28 06:45:33;;;;;;;20.50;18.20;;;;;;;18.25;100.00;96575.69;5049317;28;20195;-54
2022/08/28 06:47:59;;;;;;;19.17;17.27;;;;;;;18.29;100.00;96571.63;5041056;28;20238;-55
2022/08/28 06:50:26;;;;;;;19.08;17.10;;;;;;;18.32;100.00;96567.72;5047411;28;20238;-55
2022/08/28 06:52:54;;;;;;;18.90;17.02;;;;;;;18.38;100.00;96573.16;5054418;28;20217;-55
2022/08/28 06:55:21;;;;;;;17.80;16.08;;;;;;;18.41;100.00;96577.28;5054340;28;20288;-55
2022/08/28 06:57:48;;;;;;;18.02;16.42;;;;;;;18.45;100.00;96578.56;5054347;28;20227;-55
2022/08/28 07:00:15;;;;;;;18.42;16.65;;;;;;;18.49;100.00;96579.84;5054675;28;20214;-55
2022/08/28 07:02:42;;;;;;;18.45;16.70;;;;;;;18.53;100.00;96581.09;5054572;28;20621;-55
2022/08/28 07:05:09;;;;;;;20.45;18.65;;;;;;;18.55;100.00;96589.81;5054757;28;20215;-55
2022/08/28 07:07:36;;;;;;;20.17;18.38;;;;;;;18.59;100.00;96587.56;5041984;28;20543;-55
2022/08/28 07:10:05;;;;;;;20.02;18.02;;;;;;;18.61;100.00;96588.19;5054943;28;20550;-55
2022/08/28 07:12:31;;;;;;;20.27;18.40;;;;;;;18.60;100.00;96595.38;5055124;28;20203;-55
2022/08/28 07:14:58;;;;;;;19.98;18.15;;;;;;;18.60;100.00;96590.03;5055329;28;20231;-54
2022/08/28 07:17:25;;;;;;;17.70;16.10;;;;;;;18.63;100.00;96592.34;5054988;28;20309;-55
2022/08/28 07:19:52;;;;;;;18.38;16.58;;;;;;;18.67;100.00;96598.94;5054415;28;20199;-54
2022/08/28 07:22:18;;;;;;;17.42;15.82;;;;;;;18.70;100.00;96597.75;5054850;28;20276;-55
2022/08/28 07:24:45;;;;;;;18.58;16.80;;;;;;;18.72;100.00;96599.19;5054631;28;20234;-55
2022/08/28 07:27:15;;;;;;;17.95;16.27;;;;;;;18.73;100.00;96598.19;5054838;28;20240;-55
2022/08/28 07:29:42;;;;;;;19.63;17.80;;;;;;;18.72;100.00;96596.53;5054744;28;20217;-54
2022/08/28 07:32:09;;;;;;;19.15;17.35;;;;;;;18.67;100.00;96606.97;5054737;28;20293;-55
2022/08/28 07:34:39;;;;;;;18.95;17.05;;;;;;;18.71;100.00;96608.25;5055000;28;20214;-54
2022/08/28 07:37:06;;;;;;;18.38;16.65;;;;;;;18.73;100.00;96605.38;5054893;28;20302;-55
2022/08/28 07:39:33;;;;;;;19.25;17.60;;;;;;;18.71;100.00;96612.78;5054571;28;20292;-54
2022/08/28 07:42:00;;;;;;;18.02;16.27;;;;;;;18.75;100.00;96611.38;5055954;28;20214;-55
2022/08/28 07:47:12;;;;;;;17.95;16.35;;;;;;;18.86;100.00;96618.88;5055140;28;20638;-55
2022/08/28 07:49:40;;;;;;;16.65;15.05;;;;;;;18.94;100.00;96604.50;5047738;28;20239;-53
2022/08/28 07:52:07;;;;;;;18.90;17.02;;;;;;;18.97;100.00;96610.31;5042786;28;20208;-55
2022/08/28 07:54:34;;;;;;;19.00;17.20;;;;;;;19.00;100.00;96612.59;5057812;28;20222;-53
2022/08/28 07:57:02;;;;;;;19.95;18.00;;;;;;;19.01;100.00;96616.09;5059078;28;20222;-53
2022/08/28 07:59:31;;;;;;;18.35;16.65;;;;;;;19.06;100.00;96617.16;5072709;28;20211;-53
2022/08/28 08:01:58;;;;;;;18.77;17.08;;;;;;;19.14;100.00;96616.16;5076938;28;20217;-54
2022/08/28 08:04:25;;;;;;;19.00;17.30;;;;;;;19.20;100.00;96620.78;5080366;28;20236;-53
2022/08/28 08:06:52;;;;;;;18.30;16.70;;;;;;;19.24;100.00;96616.63;5080952;28;20218;-54
2022/08/28 08:09:20;;;;;;;17.27;15.75;;;;;;;19.29;100.00;96620.41;5072875;28;20208;-55
2022/08/28 08:11:48;;;;;;;17.52;15.90;;;;;;;19.32;100.00;96629.91;5063704;28;20209;-54
2022/08/28 08:14:15;;;;;;;19.10;17.20;;;;;;;19.33;100.00;96626.19;5080551;28;20187;-55
2022/08/28 08:16:45;;;;;;;18.40;16.52;;;;;;;19.30;100.00;96631.97;5081040;28;20234;-54
2022/08/28 08:19:13;;;;;;;16.75;15.15;;;;;;;19.34;100.00;96635.91;5079024;28;20182;-55
2022/08/28 08:21:42;;;;;;;18.17;16.30;;;;;;;19.36;100.00;96631.16;5070198;28;20207;-54
2022/08/28 08:24:08;;;;;;;19.02;17.05;;;;;;;19.36;100.00;96634.69;5063794;28;20294;-54
2022/08/28 08:26:36;;;;;;;18.50;16.70;;;;;;;19.35;100.00;96635.69;5064243;28;20239;-56
2022/08/28 08:29:04;;;;;;;16.38;15.02;;;;;;;19.44;100.00;96636.41;5059225;28;20207;-54
2022/08/28 08:31:33;;;;;;;16.10;14.60;;;;;;;19.54;100.00;96638.72;5058586;28;20573;-54
2022/08/28 08:34:03;;;;;;;16.33;14.73;;;;;;;19.55;100.00;96640.38;5065507;28;20207;-53
2022/08/28 08:36:33;;;;;;;17.35;15.75;;;;;;;19.63;100.00;96632.97;5061871;28;20211;-55
2022/08/28 08:39:00;;;;;;;16.58;15.07;;;;;;;19.67;100.00;96639.59;5060180;28;20234;-55
2022/08/28 08:41:30;;;;;;;17.90;16.15;;;;;;;19.70;100.00;96639.19;5061041;28;20294;-55
2022/08/28 08:43:59;;;;;;;17.40;15.80;;;;;;;19.74;100.00;96645.81;5064354;28;20203;-53
2022/08/28 08:46:31;;;;;;;17.83;16.25;;;;;;;19.76;100.00;96638.41;5063886;28;20228;-55
2022/08/28 08:49:03;;;;;;;19.27;17.33;;;;;;;19.75;100.00;96642.13;5050903;28;20243;-54
2022/08/28 08:51:39;;;;;;;17.35;15.65;;;;;;;19.80;100.00;96638.84;5046994;28;20211;-55
2022/08/28 08:54:10;;;;;;;16.08;14.63;;;;;;;19.82;100.00;96642.97;5055491;28;20260;-54
2022/08/28 08:56:36;;;;;;;15.70;14.13;;;;;;;19.90;100.00;96643.84;5045835;28;20294;-54
2022/08/28 08:59:05;;;;;;;14.88;13.45;;;;;;;19.97;100.00;96644.69;5056571;28;20783;-54
2022/08/28 09:01:36;;;;;;;16.17;14.57;;;;;;;20.02;100.00;96642.19;5057034;28;20285;-55
2022/08/28 09:04:10;;;;;;;16.20;14.70;;;;;;;20.08;100.00;96649.47;5057097;28;20206;-55
2022/08/28 09:06:42;;;;;;;16.60;14.93;;;;;;;20.13;100.00;96644.31;5056678;28;20231;-54
2022/08/28 09:09:16;;;;;;;14.65;13.25;;;;;;;20.20;100.00;96645.97;5051025;28;20208;-55
2022/08/28 09:11:48;;;;;;;16.83;15.15;;;;;;;20.27;100.00;96651.34;5050390;28;20238;-55
2022/08/28 09:14:20;;;;;;;17.33;15.65;;;;;;;20.29;100.00;96657.41;5043436;28;20702;-55
2022/08/28 09:16:47;;;;;;;17.23;15.52;;;;;;;20.29;100.00;96652.03;5056192;28;20217;-54
2022/08/28 09:19:19;;;;;;;17.88;16.02;;;;;;;20.35;100.00;96659.28;5050118;28;20590;-54
2022/08/28 09:21:46;;;;;;;16.50;14.95;;;;;;;20.39;100.00;96657.84;5043489;28;20282;-54
2022/08/28 09:24:21;;;;;;;17.35;15.63;;;;;;;20.42;100.00;96656.59;5056266;28;20289;-56
2022/08/28 09:26:55;;;;;;;15.80;14.40;;;;;;;20.48;100.00;96653.09;5056546;28;20242;-55
2022/08/28 09:29:27;;;;;;;14.85;13.40;;;;;;;20.56;100.00;96658.28;5056250;28;20246;-55
2022/08/28 09:31:55;;;;;;;16.67;15.02;;;;;;;20.62;100.00;96657.44;5056388;28;20282;-54
2022/08/28 09:34:31;;;;;;;15.50;14.13;;;;;;;20.55;100.00;96657.44;5056452;28;20532;-55
2022/08/28 09:36:59;;;;;;;14.73;13.23;;;;;;;20.62;100.00;96652.91;5056086;28;20203;-54
2022/08/28 09:39:27;;;;;;;11.82;10.80;;;;;;;20.64;100.00;96653.53;5056002;28;20242;-54
2022/08/28 09:44:52;;;;;;;11.93;10.82;;;;;;;20.70;99.65;96644.66;5055877;28;20221;-54
2022/08/28 09:47:37;;;;;;;10.80;9.90;;;;;;;20.76;99.40;96654.56;5055752;28;20207;-56
2022/08/28 09:50:25;;;;;;;10.18;9.23;;;;;;;20.88;100.00;96651.25;5049485;28;20207;-54
2022/08/28 09:52:53;;;;;;;13.02;11.75;;;;;;;20.85;95.42;96650.66;5055467;28;20595;-55
2022/08/28 09:55:23;;;;;;;12.13;10.90;;;;;;;20.83;95.17;96659.97;5055952;28;20230;-55
2022/08/28 09:57:51;;;;;;;10.88;9.88;;;;;;;20.95;96.17;96655.59;5055853;28;20253;-55
2022/08/28 10:00:18;;;;;;;11.45;10.38;;;;;;;21.05;95.56;96657.88;5055927;28;20272;-55
2022/08/28 10:02:48;;;;;;;11.63;10.40;;;;;;;21.10;93.89;96663.47;5056004;28;20207;-55
2022/08/28 10:05:19;;;;;;;11.18;10.07;;;;;;;21.08;93.17;96654.78;5054806;28;20242;-54
2022/08/28 10:07:51;;;;;;;10.70;9.70;;;;;;;21.14;93.18;96659.34;5055654;28;20199;-55
2022/08/28 10:10:27;;;;;;;11.15;10.15;;;;;;;21.18;92.41;96660.59;5055791;28;20750;-54
2022/08/28 10:13:03;;;;;;;9.20;8.48;;;;;;;21.25;92.65;96658.72;5056142;28;20225;-53
2022/08/28 10:15:41;;;;;;;9.80;9.00;;;;;;;21.23;91.28;96647.34;5052986;28;20277;-56
2022/08/28 10:18:20;;;;;;;10.32;9.43;;;;;;;21.24;91.45;96646.31;5055193;28;20612;-55
2022/08/28 10:20:54;;;;;;;9.98;8.98;;;;;;;21.26;89.83;96654.97;5046092;28;20282;-53
2022/08/28 10:23:27;;;;;;;10.43;9.43;;;;;;;21.25;89.52;96653.34;5053253;28;20538;-55
2022/08/28 10:26:12;;;;;;;10.13;9.20;;;;;;;21.30;90.92;96653.53;5055026;28;20599;-54
2022/08/28 10:28:46;;;;;;;9.90;8.98;;;;;;;21.39;89.85;96649.59;5049514;28;20222;-54
2022/08/28 10:31:20;;;;;;;10.68;9.68;;;;;;;21.46;89.96;96646.88;5042724;28;20282;-54
2022/08/28 10:34:16;;;;;;;10.50;9.50;;;;;;;21.49;88.95;96641.91;5055176;28;20214;-54
2022/08/28 10:36:47;;;;;;;8.60;7.80;;;;;;;21.70;90.32;96640.81;5039583;28;20198;-55
2022/08/28 10:39:24;;;;;;;8.77;7.97;;;;;;;21.87;89.08;96633.06;5048529;28;20269;-53
2022/08/28 10:41:55;;;;;;;9.02;8.23;;;;;;;22.00;88.77;96638.44;5051137;28;20259;-54
2022/08/28 10:44:25;;;;;;;8.80;8.10;;;;;;;22.13;87.46;96638.38;5055482;28;20252;-54
2022/08/28 10:46:55;;;;;;;8.35;7.57;;;;;;;22.25;87.29;96632.06;5055082;28;20701;-54
2022/08/28 10:49:26;;;;;;;8.32;7.57;;;;;;;22.31;86.68;96638.47;5053798;28;20327;-55
2022/08/28 10:51:56;;;;;;;11.63;7.97;;;;;;;22.18;82.43;96639.38;5043611;28;20536;-54
2022/08/28 10:54:26;;;;;;;8.10;7.35;;;;;;;22.17;82.09;96642.28;5053513;28;20268;-54
2022/08/28 10:56:55;;;;;;;7.65;7.00;;;;;;;22.33;83.09;96644.47;5054951;28;20635;-53
2022/08/28 10:59:22;;;;;;;7.20;6.50;;;;;;;22.38;83.57;96646.53;5053859;28;20318;-55
2022/08/28 11:01:49;;;;;;;8.23;7.55;;;;;;;22.35;81.49;96647.78;5055258;28;20260;-54
2022/08/28 11:04:19;;;;;;;7.65;6.82;;;;;;;22.46;82.11;96644.38;5041213;28;20285;-55
2022/08/28 11:06:50;;;;;;;7.10;6.60;;;;;;;22.54;82.80;96657.59;5054473;28;20249;-55
2022/08/28 11:09:30;;;;;;;7.35;6.75;;;;;;;22.61;82.14;96655.69;5054731;28;20237;-55
2022/08/28 11:11:58;;;;;;;6.88;6.28;;;;;;;22.72;80.81;96652.31;5054031;28;20222;-55
2022/08/28 11:14:31;;;;;;;7.07;6.38;;;;;;;22.76;79.37;96648.16;5045621;28;20295;-55
2022/08/28 11:17:01;;;;;;;7.80;7.15;;;;;;;22.81;78.53;96640.22;5051626;28;20257;-55
2022/08/28 11:19:45;;;;;;;7.68;6.97;;;;;;;22.81;77.64;96650.19;5042332;28;20297;-56
2022/08/28 11:22:14;;;;;;;8.88;7.68;;;;;;;22.79;77.60;96650.41;5049210;28;20241;-54
2022/08/28 11:24:47;;;;;;;7.65;7.00;;;;;;;22.91;78.41;96636.22;5053905;28;20649;-55
2022/08/28 11:27:25;;;;;;;7.45;6.80;;;;;;;23.21;77.94;96626.38;5054240;28;20292;-55